Time;durP1;ratioP1;P1;durP2;ratioP2;P2;SDS_P1;SDS_P2;PMS_P1;PMS_P2;Temp;Humidity;BMP_temperature;BMP_pressure;BME280_temperature;BME280_humidity;BME280_pressure;Samples;Min_cycle;Max_cycle;Signal;HPM_P1;HPM_P2
2024/04/02 00:01:10;;;;;;;;;;;9.70;99.90;;;;;;5041074;28;20131;-92
2024/04/02 00:03:36;;;;;;;;;;;9.60;99.90;;;;;;5041064;28;20409;-91
2024/04/02 00:06:02;;;;;;;;;;;9.40;99.90;;;;;;5041169;28;19999;-92
2024/04/02 00:08:28;;;;;;;;;;;9.70;99.90;;;;;;5040446;28;19913;-92
2024/04/02 00:10:54;;;;;;;;;;;9.80;99.90;;;;;;5040971;28;20351;-91
2024/04/02 00:13:20;;;;;;;;;;;9.60;99.90;;;;;;5040389;28;20015;-91
2024/04/02 00:15:46;;;;;;;;;;;9.50;99.90;;;;;;5040079;28;19951;-92
2024/04/02 00:18:12;;;;;;;;;;;9.40;99.90;;;;;;5040906;28;19964;-91
2024/04/02 00:20:38;;;;;;;;;;;9.30;99.90;;;;;;5040558;28;19944;-91
2024/04/02 00:23:04;;;;;;;;;;;9.50;99.90;;;;;;5040682;28;20358;-91
2024/04/02 00:25:29;;;;;;;;;;;9.50;99.90;;;;;;5040217;28;19981;-92
2024/04/02 00:27:55;;;;;;;;;;;9.30;99.90;;;;;;5040814;28;19915;-92
2024/04/02 00:30:27;;;;;;;;;;;9.10;99.90;;;;;;5039791;28;19919;-92
2024/04/02 00:32:54;;;;;;;;;;;9.10;99.90;;;;;;5040567;28;19916;-91
2024/04/02 00:35:20;;;;;;;;;;;9.30;99.90;;;;;;5040553;28;19908;-92
2024/04/02 00:37:53;;;;;;;;;;;9.40;99.90;;;;;;5040079;28;19916;-92
2024/04/02 00:40:19;;;;;;;;;;;9.10;99.90;;;;;;5040595;28;19908;-92
2024/04/02 00:42:45;;;;;;;;;;;9.20;99.90;;;;;;5039703;28;19915;-91
2024/04/02 00:45:14;;;;;;;;;;;9.10;99.90;;;;;;5040368;28;19919;-91
2024/04/02 00:47:40;;;;;;;;;;;9.00;99.90;;;;;;5039810;28;19950;-91
2024/04/02 00:50:07;;;;;;;;;;;8.80;99.90;;;;;;5040062;28;19960;-92
2024/04/02 00:52:32;;;;;;;;;;;9.10;99.90;;;;;;5039806;28;19914;-91
2024/04/02 00:54:58;;;;;;;;;;;9.20;99.90;;;;;;5040108;28;19991;-91
2024/04/02 00:57:24;;;;;;;;;;;9.30;99.90;;;;;;5040356;28;19909;-91
2024/04/02 00:59:50;;;;;;;;;;;9.40;99.90;;;;;;5039811;28;19908;-92
2024/04/02 01:02:16;;;;;;;;;;;9.10;99.90;;;;;;5057228;28;19908;-91
2024/04/02 01:04:42;;;;;;;;;;;9.10;99.90;;;;;;5039831;28;19908;-91
2024/04/02 01:07:08;;;;;;;;;;;8.90;99.90;;;;;;5039825;28;20363;-91
2024/04/02 01:09:34;;;;;;;;;;;9.20;99.90;;;;;;5039783;28;20003;-91
2024/04/02 01:12:00;;;;;;;;;;;8.90;99.90;;;;;;5039765;28;19951;-92
2024/04/02 01:14:25;;;;;;;;;;;9.00;99.90;;;;;;5039678;28;19912;-92
2024/04/02 01:16:51;;;;;;;;;;;9.20;99.90;;;;;;5040276;28;19909;-91
2024/04/02 01:19:16;;;;;;;;;;;9.30;99.90;;;;;;5042360;28;19908;-91
2024/04/02 01:21:42;;;;;;;;;;;9.20;99.90;;;;;;5040647;28;20302;-91
2024/04/02 01:24:08;;;;;;;;;;;8.80;99.90;;;;;;5041743;28;20019;-91
2024/04/02 01:26:33;;;;;;;;;;;9.10;99.90;;;;;;5040699;28;19909;-91
2024/04/02 01:29:01;;;;;;;;;;;9.00;99.90;;;;;;5041224;28;19958;-92
2024/04/02 01:31:29;;;;;;;;;;;9.00;99.90;;;;;;5040939;28;19909;-91
2024/04/02 01:33:54;;;;;;;;;;;8.90;99.90;;;;;;5041347;28;19915;-92
2024/04/02 01:36:20;;;;;;;;;;;8.80;99.90;;;;;;5041530;28;19916;-92
2024/04/02 01:38:48;;;;;;;;;;;8.90;99.90;;;;;;5039230;28;20432;-91
2024/04/02 01:41:14;;;;;;;;;;;8.90;99.90;;;;;;5039792;28;19908;-91
2024/04/02 01:43:39;;;;;;;;;;;9.10;99.90;;;;;;5042052;28;19908;-91
2024/04/02 01:46:05;;;;;;;;;;;8.90;99.90;;;;;;5043329;28;19915;-92
2024/04/02 01:48:31;;;;;;;;;;;8.70;99.90;;;;;;5043254;28;19916;-91
2024/04/02 01:50:56;;;;;;;;;;;8.60;99.90;;;;;;5060157;28;19958;-92
2024/04/02 01:53:22;;;;;;;;;;;8.50;99.90;;;;;;5043511;28;20366;-91
2024/04/02 01:55:47;;;;;;;;;;;8.60;99.90;;;;;;5043057;28;19909;-92
2024/04/02 01:58:13;;;;;;;;;;;8.80;99.90;;;;;;5043168;28;19951;-91
2024/04/02 02:00:39;;;;;;;;;;;8.90;99.90;;;;;;5043533;28;19944;-91
2024/04/02 02:03:04;;;;;;;;;;;9.00;99.90;;;;;;5043208;28;19916;-91
2024/04/02 02:05:30;;;;;;;;;;;9.10;99.90;;;;;;5043457;28;19973;-92
2024/04/02 02:07:56;;;;;;;;;;;8.90;99.90;;;;;;5043560;28;19912;-91
2024/04/02 02:10:22;;;;;;;;;;;8.90;99.90;;;;;;5043096;28;20021;-91
2024/04/02 02:12:47;;;;;;;;;;;9.00;99.90;;;;;;5043113;28;19916;-92
2024/04/02 02:15:13;;;;;;;;;;;8.90;99.90;;;;;;5043217;28;19915;-91
2024/04/02 02:17:39;;;;;;;;;;;8.80;99.90;;;;;;5042743;28;19909;-92
2024/04/02 02:20:05;;;;;;;;;;;8.90;99.90;;;;;;5042828;28;19908;-92
2024/04/02 02:22:31;;;;;;;;;;;8.90;99.90;;;;;;5042962;28;19966;-92
2024/04/02 02:24:57;;;;;;;;;;;8.90;99.90;;;;;;5042752;28;19908;-92
2024/04/02 02:27:22;;;;;;;;;;;8.70;99.90;;;;;;5043302;28;20240;-92
2024/04/02 02:29:48;;;;;;;;;;;8.50;99.90;;;;;;5042388;28;19913;-92
2024/04/02 02:32:13;;;;;;;;;;;8.80;99.90;;;;;;5042237;28;19908;-92
2024/04/02 02:34:39;;;;;;;;;;;8.70;99.90;;;;;;5058938;28;20312;-92
2024/04/02 02:37:05;;;;;;;;;;;8.70;99.90;;;;;;5042140;28;19916;-92
2024/04/02 02:39:30;;;;;;;;;;;8.90;99.90;;;;;;5042691;28;19916;-92
2024/04/02 02:41:56;;;;;;;;;;;8.70;99.90;;;;;;5042806;28;19916;-92
2024/04/02 02:44:22;;;;;;;;;;;8.70;99.90;;;;;;5042749;28;19916;-92
2024/04/02 02:46:47;;;;;;;;;;;8.60;99.90;;;;;;5042335;28;20382;-92
2024/04/02 02:49:13;;;;;;;;;;;8.70;99.90;;;;;;5042276;28;19958;-92
2024/04/02 02:51:38;;;;;;;;;;;8.80;99.90;;;;;;5042140;28;19908;-92
2024/04/02 02:54:04;;;;;;;;;;;8.70;99.90;;;;;;5041879;28;20355;-92
2024/04/02 02:56:30;;;;;;;;;;;8.70;99.90;;;;;;5042547;28;19952;-92
2024/04/02 02:58:55;;;;;;;;;;;8.70;99.90;;;;;;5042188;28;19917;-92
2024/04/02 03:01:21;;;;;;;;;;;8.70;99.90;;;;;;5042070;28;19958;-92
2024/04/02 03:03:47;;;;;;;;;;;8.80;99.90;;;;;;5042189;28;19995;-92
2024/04/02 03:06:13;;;;;;;;;;;8.80;99.90;;;;;;5041594;28;19944;-92
2024/04/02 03:08:38;;;;;;;;;;;9.00;99.90;;;;;;5042032;28;20347;-92
2024/04/02 03:11:05;;;;;;;;;;;8.90;99.90;;;;;;5042160;28;19958;-92
2024/04/02 03:13:31;;;;;;;;;;;9.00;99.90;;;;;;5042023;28;19958;-92
2024/04/02 03:15:56;;;;;;;;;;;8.90;99.90;;;;;;5042178;28;19932;-92
2024/04/02 03:18:22;;;;;;;;;;;8.90;99.90;;;;;;5041715;28;19952;-92
2024/04/02 03:20:48;;;;;;;;;;;8.70;99.90;;;;;;5041854;28;19909;-92
2024/04/02 03:23:16;;;;;;;;;;;8.70;99.90;;;;;;5041551;28;19909;-92
2024/04/02 03:25:41;;;;;;;;;;;8.90;99.90;;;;;;5041974;28;19916;-92
2024/04/02 03:28:07;;;;;;;;;;;9.10;99.90;;;;;;5041884;28;19909;-92
2024/04/02 03:30:33;;;;;;;;;;;9.10;99.90;;;;;;5041242;28;20378;-92
2024/04/02 03:32:59;;;;;;;;;;;9.10;99.90;;;;;;5058491;28;19966;-92
2024/04/02 03:35:24;;;;;;;;;;;9.20;99.90;;;;;;5041230;28;19935;-92
2024/04/02 03:37:50;;;;;;;;;;;9.20;99.90;;;;;;5041219;28;20025;-92
2024/04/02 03:40:15;;;;;;;;;;;9.10;99.90;;;;;;5041675;28;19909;-92
2024/04/02 03:42:41;;;;;;;;;;;9.10;99.90;;;;;;5041417;28;19923;-92
2024/04/02 03:45:08;;;;;;;;;;;9.10;99.90;;;;;;5041777;28;19999;-92
2024/04/02 03:47:33;;;;;;;;;;;9.20;99.90;;;;;;5040816;28;20359;-92
2024/04/02 03:49:59;;;;;;;;;;;9.30;99.90;;;;;;5041386;28;20015;-92
2024/04/02 03:52:24;;;;;;;;;;;9.30;99.90;;;;;;5041103;28;20318;-92
2024/04/02 03:54:50;;;;;;;;;;;9.20;99.90;;;;;;5041238;28;19913;-92
2024/04/02 03:57:16;;;;;;;;;;;9.30;99.90;;;;;;5041834;28;19960;-92
2024/04/02 03:59:41;;;;;;;;;;;9.30;99.90;;;;;;5057196;28;19908;-92
2024/04/02 04:02:07;;;;;;;;;;;9.20;99.90;;;;;;5041148;28;19908;-92
2024/04/02 04:04:32;;;;;;;;;;;9.20;99.90;;;;;;5057192;28;20378;-92
2024/04/02 04:06:58;;;;;;;;;;;9.40;99.90;;;;;;5040135;28;19912;-92
2024/04/02 04:09:24;;;;;;;;;;;9.20;99.90;;;;;;5041604;28;20374;-92
2024/04/02 04:11:50;;;;;;;;;;;9.30;99.90;;;;;;5057451;28;20439;-92
2024/04/02 04:14:16;;;;;;;;;;;9.20;99.90;;;;;;5041796;28;19931;-92
2024/04/02 04:16:42;;;;;;;;;;;9.30;99.90;;;;;;5040708;28;20348;-92
2024/04/02 04:19:07;;;;;;;;;;;9.40;99.90;;;;;;5041599;28;19970;-92
2024/04/02 04:21:33;;;;;;;;;;;9.20;99.90;;;;;;5040448;28;20355;-92
2024/04/02 04:23:59;;;;;;;;;;;9.30;99.90;;;;;;5058172;28;19912;-92
2024/04/02 04:26:24;;;;;;;;;;;9.30;99.90;;;;;;5040737;28;19991;-92
2024/04/02 04:28:50;;;;;;;;;;;9.00;99.90;;;;;;5040783;28;19939;-92
2024/04/02 04:31:15;;;;;;;;;;;9.30;99.90;;;;;;5040648;28;19909;-92
2024/04/02 04:33:41;;;;;;;;;;;9.30;99.90;;;;;;5039794;28;19958;-92
2024/04/02 04:36:07;;;;;;;;;;;9.20;99.90;;;;;;5041134;28;20378;-92
2024/04/02 04:38:32;;;;;;;;;;;9.00;99.90;;;;;;5040625;28;19916;-92
2024/04/02 04:40:58;;;;;;;;;;;9.20;99.90;;;;;;5039966;28;20254;-92
2024/04/02 04:43:24;;;;;;;;;;;9.30;99.90;;;;;;5040844;28;19908;-92
2024/04/02 04:45:53;;;;;;;;;;;9.50;99.90;;;;;;5039922;28;19908;-92
2024/04/02 04:48:19;;;;;;;;;;;9.30;99.90;;;;;;5040199;28;20017;-92
2024/04/02 04:50:59;;;;;;;;;;;9.40;99.90;;;;;;5040461;28;19938;-92
2024/04/02 04:53:24;;;;;;;;;;;9.20;99.90;;;;;;5040254;28;19915;-92
2024/04/02 04:55:50;;;;;;;;;;;9.10;99.90;;;;;;5040306;28;20003;-92
2024/04/02 04:58:16;;;;;;;;;;;9.20;99.90;;;;;;5039667;28;19950;-92
2024/04/02 05:00:43;;;;;;;;;;;9.40;99.90;;;;;;5039461;28;19908;-92
2024/04/02 05:03:08;;;;;;;;;;;9.20;99.90;;;;;;5040108;28;19908;-92
2024/04/02 05:05:34;;;;;;;;;;;9.30;99.90;;;;;;5040070;28;19945;-92
2024/04/02 05:08:18;;;;;;;;;;;9.40;99.90;;;;;;5040196;28;19908;-92
2024/04/02 05:10:44;;;;;;;;;;;9.20;99.90;;;;;;5056211;28;19912;-92
2024/04/02 05:13:10;;;;;;;;;;;9.20;99.90;;;;;;5039958;28;19909;-92
2024/04/02 05:15:36;;;;;;;;;;;9.00;99.90;;;;;;5040209;28;19912;-92
2024/04/02 05:18:01;;;;;;;;;;;9.00;99.90;;;;;;5039671;28;19915;-92
2024/04/02 05:20:27;;;;;;;;;;;9.20;99.90;;;;;;5040491;28;19931;-92
2024/04/02 05:22:53;;;;;;;;;;;9.10;99.90;;;;;;5040394;28;19915;-92
2024/04/02 05:25:19;;;;;;;;;;;9.10;99.90;;;;;;5040395;28;19916;-92
2024/04/02 05:27:45;;;;;;;;;;;8.80;99.90;;;;;;5039911;28;19908;-91
2024/04/02 05:30:12;;;;;;;;;;;9.10;99.90;;;;;;5039796;28;19920;-92
2024/04/02 05:32:38;;;;;;;;;;;8.90;99.90;;;;;;5056658;28;19908;-92
2024/04/02 05:35:04;;;;;;;;;;;8.80;99.90;;;;;;5039911;28;20389;-92
2024/04/02 05:37:29;;;;;;;;;;;8.80;99.90;;;;;;5039576;28;20278;-92
2024/04/02 05:39:55;;;;;;;;;;;8.90;99.90;;;;;;5039788;28;19908;-92
2024/04/02 05:42:21;;;;;;;;;;;9.00;99.90;;;;;;5040037;28;19920;-92
2024/04/02 05:44:47;;;;;;;;;;;9.10;99.90;;;;;;5056882;28;19909;-92
2024/04/02 05:47:12;;;;;;;;;;;9.00;99.90;;;;;;5039075;28;19908;-92
2024/04/02 05:49:38;;;;;;;;;;;8.80;99.90;;;;;;5039598;28;19919;-92
2024/04/02 05:52:04;;;;;;;;;;;9.40;99.90;;;;;;5039417;28;19967;-92
2024/04/02 05:54:29;;;;;;;;;;;9.10;99.90;;;;;;5039818;28;19916;-92
2024/04/02 05:56:55;;;;;;;;;;;9.10;99.90;;;;;;5041272;28;20367;-92
2024/04/02 05:59:21;;;;;;;;;;;9.30;99.90;;;;;;5039442;28;19999;-92
2024/04/02 06:01:47;;;;;;;;;;;9.60;99.90;;;;;;5039677;28;19916;-92
2024/04/02 06:04:13;;;;;;;;;;;9.60;99.90;;;;;;5039751;28;19908;-92
2024/04/02 06:06:39;;;;;;;;;;;9.50;99.90;;;;;;5039414;28;19909;-92
2024/04/02 06:09:04;;;;;;;;;;;9.40;99.90;;;;;;5039614;28;19916;-92
2024/04/02 06:11:31;;;;;;;;;;;9.60;99.90;;;;;;5055668;28;19919;-92
2024/04/02 06:13:56;;;;;;;;;;;9.70;99.90;;;;;;5039872;28;19909;-92
2024/04/02 06:16:22;;;;;;;;;;;9.80;99.90;;;;;;5039129;28;19909;-93
2024/04/02 06:18:48;;;;;;;;;;;9.90;99.90;;;;;;5039736;28;19912;-92
2024/04/02 06:21:13;;;;;;;;;;;9.90;99.90;;;;;;5039473;28;20347;-92
2024/04/02 06:23:39;;;;;;;;;;;9.80;99.90;;;;;;5039602;28;19909;-92
2024/04/02 06:26:05;;;;;;;;;;;9.90;99.90;;;;;;5040590;28;19908;-92
2024/04/02 06:28:30;;;;;;;;;;;9.90;99.90;;;;;;5039560;28;20007;-92
2024/04/02 06:31:00;;;;;;;;;;;10.00;99.90;;;;;;5043219;28;20367;-92
2024/04/02 06:33:25;;;;;;;;;;;9.90;99.90;;;;;;5043150;28;19975;-92
2024/04/02 06:35:51;;;;;;;;;;;9.80;99.90;;;;;;5042415;28;19966;-92
2024/04/02 06:38:16;;;;;;;;;;;10.00;99.90;;;;;;5043159;28;19956;-92
2024/04/02 06:40:42;;;;;;;;;;;10.10;99.90;;;;;;5043065;28;19916;-92
2024/04/02 06:43:08;;;;;;;;;;;10.20;99.90;;;;;;5043503;28;19915;-92
2024/04/02 06:45:35;;;;;;;;;;;10.20;99.90;;;;;;5042222;28;19908;-92
2024/04/02 06:48:01;;;;;;;;;;;10.20;99.90;;;;;;5043767;28;19909;-93
2024/04/02 06:50:27;;;;;;;;;;;10.40;99.90;;;;;;5043204;28;19982;-92
2024/04/02 06:52:54;;;;;;;;;;;10.30;99.90;;;;;;5043579;28;19995;-92
2024/04/02 06:55:19;;;;;;;;;;;10.20;99.90;;;;;;5043522;28;20011;-92
2024/04/02 06:57:45;;;;;;;;;;;10.00;99.90;;;;;;5043149;28;19963;-92
2024/04/02 07:00:14;;;;;;;;;;;10.10;99.90;;;;;;5043511;28;19959;-92
2024/04/02 07:02:39;;;;;;;;;;;10.10;99.90;;;;;;5043152;28;20035;-92
2024/04/02 07:05:05;;;;;;;;;;;10.00;99.90;;;;;;5043318;28;19954;-93
2024/04/02 07:07:31;;;;;;;;;;;10.10;99.90;;;;;;5043245;28;19913;-92
2024/04/02 07:09:56;;;;;;;;;;;10.20;99.90;;;;;;5043161;28;19912;-92
2024/04/02 07:12:22;;;;;;;;;;;10.10;99.90;;;;;;5043712;28;19908;-92
2024/04/02 07:14:47;;;;;;;;;;;10.00;99.90;;;;;;5042159;28;19940;-92
2024/04/02 07:17:13;;;;;;;;;;;10.00;99.90;;;;;;5043648;28;20270;-92
2024/04/02 07:19:39;;;;;;;;;;;10.10;99.90;;;;;;5042897;28;20018;-92
2024/04/02 07:22:04;;;;;;;;;;;10.10;99.90;;;;;;5043227;28;19934;-93
2024/04/02 07:24:30;;;;;;;;;;;10.40;99.90;;;;;;5043072;28;20464;-92
2024/04/02 07:26:55;;;;;;;;;;;10.30;99.90;;;;;;5043373;28;19939;-92
2024/04/02 07:29:21;;;;;;;;;;;10.30;99.90;;;;;;5042604;28;19952;-93
2024/04/02 07:31:47;;;;;;;;;;;10.50;99.90;;;;;;5042389;28;20303;-92
2024/04/02 07:34:12;;;;;;;;;;;10.20;99.90;;;;;;5041976;28;19912;-92
2024/04/02 07:36:38;;;;;;;;;;;10.40;99.90;;;;;;5041779;28;19999;-92
2024/04/02 07:39:07;;;;;;;;;;;10.50;99.90;;;;;;5041639;28;20359;-92
2024/04/02 07:41:32;;;;;;;;;;;10.50;99.90;;;;;;5041665;28;19957;-92
2024/04/02 07:43:58;;;;;;;;;;;10.50;99.90;;;;;;5041925;28;19908;-92
2024/04/02 07:46:24;;;;;;;;;;;10.40;99.90;;;;;;5043007;28;20335;-92
2024/04/02 07:48:49;;;;;;;;;;;10.50;99.90;;;;;;5042521;28;19912;-92
2024/04/02 07:51:15;;;;;;;;;;;10.50;99.90;;;;;;5043256;28;20248;-92
2024/04/02 07:53:41;;;;;;;;;;;10.50;99.90;;;;;;5030496;28;20034;-93
2024/04/02 07:56:06;;;;;;;;;;;10.50;99.90;;;;;;5040887;28;20426;-92
2024/04/02 07:58:32;;;;;;;;;;;10.70;99.90;;;;;;5042154;28;19916;-92
2024/04/02 08:00:57;;;;;;;;;;;10.80;99.90;;;;;;5043308;28;19908;-92
2024/04/02 08:03:23;;;;;;;;;;;11.10;99.90;;;;;;5041293;28;19954;-92
2024/04/02 08:05:55;;;;;;;;;;;11.00;99.90;;;;;;5040502;28;19909;-92
2024/04/02 08:08:21;;;;;;;;;;;11.10;99.90;;;;;;5040783;28;19912;-92
2024/04/02 08:10:47;;;;;;;;;;;10.90;99.90;;;;;;5040648;28;20393;-92
2024/04/02 08:13:12;;;;;;;;;;;10.90;99.90;;;;;;5040963;28;19912;-92
2024/04/02 08:15:38;;;;;;;;;;;10.90;99.90;;;;;;5041228;28;19909;-92
2024/04/02 08:18:04;;;;;;;;;;;10.90;99.90;;;;;;5041384;28;20347;-92
2024/04/02 08:20:30;;;;;;;;;;;10.90;99.90;;;;;;5041162;28;19908;-92
2024/04/02 08:22:57;;;;;;;;;;;11.00;99.90;;;;;;5040903;28;19908;-92
2024/04/02 08:25:23;;;;;;;;;;;10.80;99.90;;;;;;5044122;28;19956;-91
2024/04/02 08:27:48;;;;;;;;;;;10.80;99.90;;;;;;5049413;28;19916;-93
2024/04/02 08:30:14;;;;;;;;;;;10.90;99.90;;;;;;5046360;28;20279;-92
2024/04/02 08:32:39;;;;;;;;;;;10.90;99.90;;;;;;5049129;28;19980;-91
2024/04/02 08:35:05;;;;;;;;;;;11.20;99.90;;;;;;5045978;28;19908;-91
2024/04/02 08:37:31;;;;;;;;;;;11.40;99.90;;;;;;5044329;28;20386;-92
2024/04/02 08:39:57;;;;;;;;;;;11.50;99.90;;;;;;5044205;28;19909;-92
2024/04/02 08:42:25;;;;;;;;;;;11.50;99.90;;;;;;5043837;28;19916;-92
2024/04/02 08:44:51;;;;;;;;;;;11.80;99.90;;;;;;5040137;28;19960;-92
2024/04/02 08:47:17;;;;;;;;;;;11.50;99.90;;;;;;5040255;28;19909;-92
2024/04/02 08:49:44;;;;;;;;;;;11.50;99.90;;;;;;5039751;28;19912;-92
2024/04/02 08:52:11;;;;;;;;;;;11.60;99.90;;;;;;5039601;28;19909;-92
2024/04/02 08:54:37;;;;;;;;;;;11.70;99.90;;;;;;5040269;28;19913;-92
2024/04/02 08:57:03;;;;;;;;;;;11.50;99.90;;;;;;5040481;28;20347;-92
2024/04/02 08:59:31;;;;;;;;;;;11.80;99.90;;;;;;5039949;28;19955;-92
2024/04/02 09:01:57;;;;;;;;;;;12.00;99.90;;;;;;5039488;28;19909;-92
2024/04/02 09:04:24;;;;;;;;;;;11.70;99.90;;;;;;5039547;28;19919;-92
2024/04/02 09:06:50;;;;;;;;;;;11.60;99.90;;;;;;5039724;28;19908;-91
2024/04/02 09:09:19;;;;;;;;;;;11.20;99.90;;;;;;5039242;28;19934;-92
2024/04/02 09:11:45;;;;;;;;;;;10.60;99.90;;;;;;5040011;28;19931;-91
2024/04/02 09:14:11;;;;;;;;;;;10.40;99.90;;;;;;5039448;28;20422;-91
2024/04/02 09:16:37;;;;;;;;;;;10.50;99.90;;;;;;5039556;28;19909;-91
2024/04/02 09:19:02;;;;;;;;;;;10.50;99.90;;;;;;5039620;28;20386;-91
2024/04/02 09:21:28;;;;;;;;;;;10.40;99.90;;;;;;5073861;28;20445;-91
2024/04/02 09:23:54;;;;;;;;;;;10.40;99.90;;;;;;5039303;28;20018;-91
2024/04/02 09:26:22;;;;;;;;;;;10.30;99.90;;;;;;5039440;28;19916;-91
2024/04/02 09:28:48;;;;;;;;;;;10.20;99.90;;;;;;5044765;28;19909;-91
2024/04/02 09:31:15;;;;;;;;;;;10.00;99.90;;;;;;5044774;28;19909;-92
2024/04/02 09:33:41;;;;;;;;;;;10.10;99.90;;;;;;5035430;28;19908;-92
2024/04/02 09:36:11;;;;;;;;;;;10.00;99.90;;;;;;5036027;28;19935;-92
2024/04/02 09:38:37;;;;;;;;;;;10.10;99.90;;;;;;5038175;28;19916;-91
2024/04/02 09:41:03;;;;;;;;;;;10.30;99.90;;;;;;5038692;28;20263;-91
2024/04/02 09:43:36;;;;;;;;;;;10.60;99.90;;;;;;5038983;28;19909;-91
2024/04/02 09:46:02;;;;;;;;;;;10.60;99.90;;;;;;5038473;28;19909;-91
2024/04/02 09:48:32;;;;;;;;;;;10.60;99.90;;;;;;5038219;28;19954;-91
2024/04/02 09:50:58;;;;;;;;;;;10.50;99.90;;;;;;5038654;28;19912;-91
2024/04/02 09:53:24;;;;;;;;;;;10.50;99.90;;;;;;5055183;28;19908;-91
2024/04/02 09:55:51;;;;;;;;;;;10.40;99.90;;;;;;5038605;28;19962;-91
2024/04/02 09:58:18;;;;;;;;;;;10.60;99.90;;;;;;5038633;28;19908;-91
2024/04/02 10:00:46;;;;;;;;;;;10.80;99.90;;;;;;5038123;28;19909;-91
2024/04/02 10:03:12;;;;;;;;;;;10.50;99.90;;;;;;5055179;28;20275;-91
2024/04/02 10:05:38;;;;;;;;;;;10.70;99.90;;;;;;5041167;28;19955;-91
2024/04/02 10:08:06;;;;;;;;;;;10.40;99.90;;;;;;5041953;28;19962;-91
2024/04/02 10:10:36;;;;;;;;;;;10.30;99.90;;;;;;5041440;28;19913;-91
2024/04/02 10:13:03;;;;;;;;;;;10.10;99.90;;;;;;5041237;28;19952;-91
2024/04/02 10:15:29;;;;;;;;;;;9.90;99.90;;;;;;5041651;28;20426;-91
2024/04/02 10:17:59;;;;;;;;;;;10.00;99.90;;;;;;5040754;28;19955;-92
2024/04/02 10:20:26;;;;;;;;;;;9.90;99.90;;;;;;5041564;28;19991;-92
2024/04/02 10:22:52;;;;;;;;;;;9.70;99.90;;;;;;5041046;28;19947;-92
2024/04/02 10:25:17;;;;;;;;;;;9.60;99.90;;;;;;5040777;28;19909;-91
2024/04/02 10:27:49;;;;;;;;;;;9.60;99.90;;;;;;5041198;28;20312;-92
2024/04/02 10:30:19;;;;;;;;;;;9.70;99.90;;;;;;5042038;28;19912;-92
2024/04/02 10:32:45;;;;;;;;;;;9.60;99.90;;;;;;5040647;28;19955;-92
2024/04/02 10:35:17;;;;;;;;;;;9.60;99.90;;;;;;5057905;28;19952;-92
2024/04/02 10:37:42;;;;;;;;;;;9.70;99.90;;;;;;4989835;28;1933478;-92
2024/04/02 10:40:08;;;;;;;;;;;9.50;99.90;;;;;;5042256;28;19908;-92
2024/04/02 10:42:34;;;;;;;;;;;9.50;99.90;;;;;;5042273;28;19915;-92
2024/04/02 10:44:59;;;;;;;;;;;9.70;99.90;;;;;;5042237;28;20351;-92
2024/04/02 10:47:27;;;;;;;;;;;9.90;99.90;;;;;;5041210;28;19944;-92
2024/04/02 10:49:53;;;;;;;;;;;10.10;99.90;;;;;;5041749;28;19913;-92
2024/04/02 10:52:19;;;;;;;;;;;10.20;99.90;;;;;;5041781;28;20256;-92
2024/04/02 10:54:44;;;;;;;;;;;10.10;99.90;;;;;;5041883;28;19912;-92
2024/04/02 10:57:10;;;;;;;;;;;10.30;99.90;;;;;;5042384;28;20445;-92
2024/04/02 10:59:36;;;;;;;;;;;10.40;99.90;;;;;;5041000;28;20007;-92
2024/04/02 11:02:18;;;;;;;;;;;10.60;99.90;;;;;;5041321;28;19909;-92
2024/04/02 11:04:44;;;;;;;;;;;10.70;99.90;;;;;;5041665;28;19908;-93
2024/04/02 11:07:11;;;;;;;;;;;10.70;99.90;;;;;;5041792;28;20248;-92
2024/04/02 11:09:39;;;;;;;;;;;11.00;99.90;;;;;;5041691;28;19912;-92
2024/04/02 11:12:05;;;;;;;;;;;11.20;99.90;;;;;;5042046;28;19962;-92
2024/04/02 11:14:31;;;;;;;;;;;11.40;99.90;;;;;;5041460;28;19912;-92
2024/04/02 11:16:56;;;;;;;;;;;11.70;99.90;;;;;;5040734;28;20413;-92
2024/04/02 11:19:22;;;;;;;;;;;11.90;99.90;;;;;;5042105;28;20400;-92
2024/04/02 11:24:57;;;;;;;;;;;12.10;99.90;;;;;;5041249;28;19909;-92
2024/04/02 11:27:23;;;;;;;;;;;11.80;99.90;;;;;;5060832;28;19958;-92
2024/04/02 11:29:49;;;;;;;;;;;11.40;99.90;;;;;;5040743;28;20035;-92
2024/04/02 11:32:14;;;;;;;;;;;11.40;99.90;;;;;;5041058;28;20004;-92
2024/04/02 11:34:40;;;;;;;;;;;11.30;99.90;;;;;;5040098;28;20355;-92
2024/04/02 11:37:06;;;;;;;;;;;11.10;99.90;;;;;;5040562;28;19920;-92
2024/04/02 11:39:32;;;;;;;;;;;11.00;99.90;;;;;;5040500;28;19908;-92
2024/04/02 11:41:57;;;;;;;;;;;11.00;99.90;;;;;;5041212;28;19959;-92
2024/04/02 11:44:23;;;;;;;;;;;11.00;99.90;;;;;;5040645;28;19909;-92
2024/04/02 11:46:49;;;;;;;;;;;11.00;99.90;;;;;;5039601;28;20432;-92
2024/04/02 11:49:27;;;;;;;;;;;11.00;99.90;;;;;;5041034;28;19965;-92
2024/04/02 11:54:55;;;;;;;;;;;11.30;99.90;;;;;;5075563;28;20397;-92
2024/04/02 12:15:56;;;;;;;;;;;10.80;99.90;;;;;;5074753;28;20279;-92
2024/04/02 12:18:22;;;;;;;;;;;10.70;99.90;;;;;;5039715;28;19913;-92
2024/04/02 12:20:47;;;;;;;;;;;10.80;99.90;;;;;;5039965;28;19908;-92
2024/04/02 12:23:13;;;;;;;;;;;10.70;99.90;;;;;;5040462;28;19908;-92
2024/04/02 12:25:38;;;;;;;;;;;10.70;99.90;;;;;;5040209;28;20003;-92
2024/04/02 12:28:04;;;;;;;;;;;10.80;99.90;;;;;;5039481;28;19931;-91
2024/04/02 12:30:30;;;;;;;;;;;10.70;99.90;;;;;;5040030;28;20378;-92
2024/04/02 12:32:55;;;;;;;;;;;10.60;99.90;;;;;;5039835;28;19912;-92
2024/04/02 12:35:21;;;;;;;;;;;10.60;99.90;;;;;;5039882;28;20377;-92
2024/04/02 12:37:47;;;;;;;;;;;10.70;99.90;;;;;;5055776;28;19959;-92
2024/04/02 12:40:13;;;;;;;;;;;10.90;99.90;;;;;;5040062;28;20313;-92
2024/04/02 12:42:38;;;;;;;;;;;10.90;99.90;;;;;;5039361;28;19908;-92
2024/04/02 12:45:05;;;;;;;;;;;10.90;99.90;;;;;;5039830;28;19962;-92
2024/04/02 12:47:31;;;;;;;;;;;11.00;99.90;;;;;;5039437;28;20367;-92
2024/04/02 12:49:56;;;;;;;;;;;11.00;99.90;;;;;;5038550;28;19913;-92
2024/04/02 12:52:23;;;;;;;;;;;11.00;99.90;;;;;;5056456;28;20401;-92
2024/04/02 12:54:48;;;;;;;;;;;10.90;99.90;;;;;;5039579;28;19923;-92
2024/04/02 12:57:14;;;;;;;;;;;11.10;99.90;;;;;;5039605;28;19908;-92
2024/04/02 12:59:39;;;;;;;;;;;11.30;99.90;;;;;;5039321;28;20256;-92
2024/04/02 13:02:05;;;;;;;;;;;10.90;99.90;;;;;;5040157;28;19916;-92
2024/04/02 13:04:31;;;;;;;;;;;10.90;99.90;;;;;;5038419;28;19977;-92
2024/04/02 13:06:56;;;;;;;;;;;10.70;99.90;;;;;;5039643;28;19909;-92
2024/04/02 13:09:23;;;;;;;;;;;10.80;99.90;;;;;;5056811;28;19995;-92
2024/04/02 13:11:48;;;;;;;;;;;10.90;99.90;;;;;;5039088;28;20363;-92
2024/04/02 13:14:14;;;;;;;;;;;10.70;99.90;;;;;;5039977;28;19908;-92
2024/04/02 13:16:40;;;;;;;;;;;10.70;99.90;;;;;;5038610;28;19908;-92
2024/04/02 13:19:06;;;;;;;;;;;10.80;99.90;;;;;;5039572;28;20355;-92
2024/04/02 13:21:35;;;;;;;;;;;10.90;99.90;;;;;;5039268;28;19908;-92
2024/04/02 13:24:02;;;;;;;;;;;11.10;99.90;;;;;;5039610;28;20416;-92
2024/04/02 13:26:28;;;;;;;;;;;11.20;99.90;;;;;;5039444;28;19912;-92
2024/04/02 13:28:55;;;;;;;;;;;11.90;99.90;;;;;;5038839;28;19915;-92
2024/04/02 13:31:20;;;;;;;;;;;12.50;99.90;;;;;;5039289;28;19909;-92
2024/04/02 13:33:48;;;;;;;;;;;13.50;99.90;;;;;;5038145;28;20267;-93
2024/04/02 13:36:15;;;;;;;;;;;14.40;99.90;;;;;;5039322;28;19978;-92
2024/04/02 13:38:41;;;;;;;;;;;14.10;99.90;;;;;;5034752;28;19917;-93
2024/04/02 13:41:07;;;;;;;;;;;13.60;99.90;;;;;;5051805;28;19959;-92
2024/04/02 13:43:33;;;;;;;;;;;13.20;99.90;;;;;;5038414;28;20322;-92
2024/04/02 13:46:02;;;;;;;;;;;12.80;99.90;;;;;;5038774;28;19916;-92
2024/04/02 13:48:27;;;;;;;;;;;12.70;99.90;;;;;;5039688;28;19909;-92
2024/04/02 13:51:03;;;;;;;;;;;12.40;99.90;;;;;;5039129;28;19912;-92
2024/04/02 13:53:30;;;;;;;;;;;12.00;99.90;;;;;;5038819;28;19909;-92
2024/04/02 13:55:59;;;;;;;;;;;11.80;99.90;;;;;;5039195;28;19908;-92
2024/04/02 13:58:24;;;;;;;;;;;11.70;99.90;;;;;;5038825;28;20401;-91
2024/04/02 14:00:50;;;;;;;;;;;11.40;99.90;;;;;;5038851;28;20015;-92
2024/04/02 14:03:16;;;;;;;;;;;11.20;99.90;;;;;;5039205;28;19908;-92
2024/04/02 14:05:41;;;;;;;;;;;11.30;99.90;;;;;;5038601;28;20247;-92
2024/04/02 14:08:07;;;;;;;;;;;11.30;99.90;;;;;;5039439;28;19908;-92
2024/04/02 14:10:36;;;;;;;;;;;11.20;99.90;;;;;;5038940;28;19913;-92
2024/04/02 14:13:05;;;;;;;;;;;11.10;99.90;;;;;;5039688;28;20372;-92
2024/04/02 14:15:34;;;;;;;;;;;11.10;99.90;;;;;;5039795;28;19908;-92
2024/04/02 14:18:00;;;;;;;;;;;11.50;99.90;;;;;;5039012;28;19962;-92
2024/04/02 14:20:25;;;;;;;;;;;11.50;99.90;;;;;;5042374;28;19908;-91
2024/04/02 14:22:51;;;;;;;;;;;11.70;99.90;;;;;;5038551;28;20264;-92
2024/04/02 14:25:17;;;;;;;;;;;11.60;99.90;;;;;;5039055;28;20027;-91
2024/04/02 14:27:43;;;;;;;;;;;11.80;99.90;;;;;;5038368;28;19908;-92
2024/04/02 14:30:08;;;;;;;;;;;11.70;99.90;;;;;;5038910;28;20025;-92
2024/04/02 14:32:34;;;;;;;;;;;12.00;99.90;;;;;;5038926;28;20004;-92
2024/04/02 14:35:00;;;;;;;;;;;12.20;99.90;;;;;;5055169;28;19909;-92
2024/04/02 14:37:26;;;;;;;;;;;12.50;99.90;;;;;;5038243;28;20281;-92
2024/04/02 14:39:54;;;;;;;;;;;12.80;99.90;;;;;;5038879;28;19955;-91
2024/04/02 14:42:20;;;;;;;;;;;14.00;99.90;;;;;;5055385;28;19915;-93